This is the latest recevied weather packets stored in our database for station/object G4MDP-13. If no packets are shown the sender has not sent any weather packets the latest 10 day(s).
| Time | Temp. | Humidity | Pressure | Rain* | Wind** | Luminosity | Snow |
|---|---|---|---|---|---|---|---|
| 1777815226 | 18.33° C | 65% | 1003.9 hPa | 0 mm | - | - | - |
| 1777814325 | 18.33° C | 66% | 1004.1 hPa | 0 mm | - | - | - |
| 1777813485 | 16.67° C | 70% | 1003.9 hPa | 0 mm | - | - | - |
| 1777813426 | 16.67° C | 71% | 1004 hPa | 0 mm | - | - | - |
| 1777812525 | 16.11° C | 72% | 1004 hPa | 0 mm | - | - | - |
| 1777811685 | 16.67° C | 70% | 1010.3 hPa | 0 mm | - | - | - |
| 1777811625 | 16.67° C | 69% | 1010.4 hPa | 0 mm | - | - | - |
| 1777810725 | 17.78° C | 66% | 1004 hPa | 0 mm | - | - | - |
| 1777809885 | 17.78° C | 66% | 1003.9 hPa | 0 mm | - | - | - |
| 1777809825 | 17.78° C | 67% | 1003.9 hPa | 0 mm | - | - | - |
| 1777808925 | 20° C | 61% | 1003.9 hPa | 0 mm | - | - | - |
| 1777808085 | 20° C | 62% | 1003.7 hPa | 0 mm | - | - | - |
| 1777808025 | 19.44° C | 62% | 1003.7 hPa | 0 mm | - | - | - |
| 1777807125 | 19.44° C | 62% | 1004 hPa | 0 mm | - | - | - |
| 1777806285 | 18.33° C | 65% | 1004.1 hPa | 0 mm | - | - | - |
| 1777806225 | 18.33° C | 66% | 1003.7 hPa | 0 mm | - | - | - |
| 1777805325 | 17.78° C | 66% | 1004 hPa | 0 mm | - | - | - |
| 1777804485 | 18.89° C | 65% | 1004 hPa | 0 mm | - | - | - |
| 1777804425 | 18.89° C | 65% | 1004.3 hPa | 0 mm | - | - | - |
| 1777803525 | 18.89° C | 65% | 1004.2 hPa | 0 mm | - | - | - |
| 1777802685 | 17.22° C | 68% | 1004.2 hPa | 0 mm | - | - | - |
| 1777802625 | 17.78° C | 68% | 1004.2 hPa | 0 mm | - | - | - |
| 1777801725 | 16.11° C | 73% | 1003.9 hPa | 0 mm | - | - | - |
| 1777799926 | 15.56° C | 75% | 1004.3 hPa | 0 mm | - | - | - |
| 1777799925 | 15.56° C | 75% | 1004.3 hPa | 0 mm | - | - | - |
* Rain latest hour (hover to see other rain measurements)
** Current wind speed in m/s (hover to see current wind gust speed)